createdAt,value
2023-03-02T00:02:21.261Z,34.17
2023-03-02T00:04:50.589Z,34.80
2023-03-02T00:07:20.197Z,34.90
2023-03-02T00:09:47.763Z,33.00
2023-03-02T00:12:16.108Z,34.88
2023-03-02T00:14:43.738Z,35.97
2023-03-02T00:17:11.321Z,32.35
2023-03-02T00:19:38.989Z,34.42
2023-03-02T00:22:07.311Z,33.53
2023-03-02T00:24:35.337Z,33.50
2023-03-02T00:27:03.196Z,35.38
2023-03-02T00:29:31.400Z,33.53
2023-03-02T00:31:59.098Z,33.70
2023-03-02T00:34:26.660Z,32.72
2023-03-02T00:36:54.119Z,33.58
2023-03-02T00:39:21.727Z,32.63
2023-03-02T00:41:49.330Z,34.15
2023-03-02T00:44:20.265Z,32.80
2023-03-02T00:46:47.871Z,33.75
2023-03-02T00:49:15.491Z,33.72
2023-03-02T00:51:43.002Z,33.10
2023-03-02T00:54:10.661Z,33.65
2023-03-02T00:56:38.194Z,33.70
2023-03-02T00:59:11.009Z,33.75
2023-03-02T01:04:06.167Z,33.35
2023-03-02T01:06:34.002Z,34.13
2023-03-02T01:09:03.553Z,36.10
2023-03-02T01:11:31.073Z,33.63
2023-03-02T01:13:58.526Z,34.95
2023-03-02T01:16:26.155Z,36.72
2023-03-02T01:18:53.753Z,33.95
2023-03-02T01:21:21.356Z,36.33
2023-03-02T01:23:48.860Z,35.80
2023-03-02T01:26:16.925Z,38.67
2023-03-02T01:28:44.545Z,36.17
2023-03-02T01:31:12.094Z,37.00
2023-03-02T01:33:39.642Z,36.85
2023-03-02T01:36:07.504Z,37.20
2023-03-02T01:38:35.070Z,36.00
2023-03-02T01:41:02.720Z,37.60
2023-03-02T01:43:30.504Z,37.47
2023-03-02T01:46:02.282Z,37.00
2023-03-02T01:48:47.175Z,39.80
2023-03-02T01:51:20.548Z,36.15
2023-03-02T01:53:51.689Z,36.20
2023-03-02T01:56:28.375Z,37.00
2023-03-02T01:59:01.927Z,36.22
2023-03-02T02:01:31.124Z,37.97
2023-03-02T02:03:59.068Z,36.60
2023-03-02T02:06:33.896Z,36.22
2023-03-02T02:09:02.057Z,35.00
2023-03-02T02:11:29.637Z,36.53
2023-03-02T02:14:01.278Z,35.88
2023-03-02T02:16:29.876Z,35.80
2023-03-02T02:18:57.516Z,37.00
2023-03-02T02:21:26.157Z,35.10
2023-03-02T02:24:16.378Z,36.42
2023-03-02T02:26:52.306Z,35.25
2023-03-02T02:29:23.036Z,34.58
2023-03-02T02:31:54.412Z,33.85
2023-03-02T02:34:42.551Z,33.70
2023-03-02T02:37:13.839Z,37.20
2023-03-02T02:39:43.956Z,34.75
2023-03-02T02:42:24.294Z,36.03
2023-03-02T02:44:53.026Z,36.00
2023-03-02T02:47:22.699Z,37.88
2023-03-02T02:49:52.341Z,38.50
2023-03-02T02:52:21.575Z,35.58
2023-03-02T02:54:50.494Z,35.55
2023-03-02T02:57:19.047Z,36.88
2023-03-02T03:00:06.581Z,36.58
2023-03-02T03:02:36.139Z,34.20
2023-03-02T03:05:04.013Z,37.08
2023-03-02T03:07:34.951Z,33.53
2023-03-02T03:10:09.340Z,35.95
2023-03-02T03:12:37.080Z,32.53
2023-03-02T03:15:04.961Z,33.25
2023-03-02T03:17:32.672Z,34.60
2023-03-02T03:20:11.138Z,35.72
2023-03-02T03:25:15.269Z,34.47
2023-03-02T03:27:45.114Z,35.70
2023-03-02T03:30:14.820Z,33.95
2023-03-02T03:32:43.128Z,34.08
2023-03-02T03:35:12.201Z,34.38
2023-03-02T03:37:41.116Z,30.98
2023-03-02T03:40:10.353Z,32.60
2023-03-02T03:45:08.887Z,28.45
2023-03-02T03:47:37.862Z,27.73
2023-03-02T03:50:08.445Z,29.13
2023-03-02T03:52:36.324Z,30.27
2023-03-02T03:55:11.005Z,28.90
2023-03-02T03:57:39.157Z,28.73
2023-03-02T04:00:10.515Z,29.67
2023-03-02T04:02:42.284Z,29.25
2023-03-02T04:05:11.996Z,30.63
2023-03-02T04:07:40.447Z,29.63
2023-03-02T04:10:09.646Z,29.63
2023-03-02T04:12:40.562Z,29.95
2023-03-02T04:15:10.140Z,28.38
2023-03-02T04:17:38.071Z,29.40
2023-03-02T04:20:09.640Z,28.10
2023-03-02T04:22:38.559Z,27.88
2023-03-02T04:25:06.299Z,27.83
2023-03-02T04:27:33.816Z,28.17
2023-03-02T04:30:01.315Z,26.73
2023-03-02T04:32:30.217Z,26.70
2023-03-02T04:34:58.143Z,27.85
2023-03-02T04:37:26.719Z,25.85
2023-03-02T04:39:54.441Z,27.52
2023-03-02T04:42:22.386Z,28.13
2023-03-02T04:44:49.817Z,27.30
2023-03-02T04:47:17.368Z,27.48
2023-03-02T04:49:44.986Z,25.48
2023-03-02T04:52:12.469Z,25.77
2023-03-02T04:54:39.913Z,27.75
2023-03-02T04:57:08.469Z,26.08
2023-03-02T04:59:35.944Z,27.10
2023-03-02T05:02:03.474Z,25.70
2023-03-02T05:04:31.265Z,25.63
2023-03-02T05:06:58.975Z,26.38
2023-03-02T05:09:28.586Z,26.65
2023-03-02T05:11:57.137Z,25.50
2023-03-02T05:14:25.108Z,24.95
2023-03-02T05:16:52.893Z,25.13
2023-03-02T05:19:20.486Z,25.85
2023-03-02T05:21:47.985Z,25.38
2023-03-02T05:24:15.632Z,25.63
2023-03-02T05:26:43.352Z,25.20
2023-03-02T05:29:10.848Z,25.33
2023-03-02T05:31:40.529Z,25.77
2023-03-02T05:34:09.515Z,25.90
2023-03-02T05:36:37.419Z,24.90
2023-03-02T05:39:05.754Z,25.38
2023-03-02T05:41:33.428Z,25.25
2023-03-02T05:44:01.075Z,26.33
2023-03-02T05:46:28.798Z,27.70
2023-03-02T05:48:56.562Z,26.27
2023-03-02T05:51:24.194Z,25.75
2023-03-02T05:53:51.795Z,27.90
2023-03-02T05:56:20.993Z,28.30
2023-03-02T05:58:48.584Z,27.23
2023-03-02T06:01:16.264Z,26.67
2023-03-02T06:03:44.192Z,25.77
2023-03-02T06:06:15.485Z,26.48
2023-03-02T06:11:11.206Z,26.83
2023-03-02T06:13:39.363Z,27.77
2023-03-02T06:16:07.193Z,27.55
2023-03-02T06:18:35.122Z,27.70
2023-03-02T06:21:03.153Z,29.33
2023-03-02T06:23:31.058Z,29.08
2023-03-02T06:25:59.042Z,29.35
2023-03-02T06:28:26.877Z,29.10
2023-03-02T06:30:54.675Z,28.52
2023-03-02T06:33:22.630Z,29.67
2023-03-02T06:35:50.686Z,28.50
2023-03-02T06:38:18.545Z,30.05
2023-03-02T06:40:46.266Z,30.27
2023-03-02T06:43:14.263Z,29.23
2023-03-02T06:45:41.909Z,28.85
2023-03-02T06:48:09.726Z,29.85
2023-03-02T06:50:37.361Z,30.80
2023-03-02T06:53:05.015Z,29.70
2023-03-02T06:55:32.638Z,31.10
2023-03-02T06:58:00.284Z,31.65
2023-03-02T07:00:28.386Z,30.33
2023-03-02T07:02:57.382Z,31.80
2023-03-02T07:05:25.583Z,30.25
2023-03-02T07:07:53.263Z,29.45
2023-03-02T07:10:20.861Z,31.65
2023-03-02T07:12:48.593Z,30.17
2023-03-02T07:15:16.617Z,31.13
2023-03-02T07:17:45.156Z,30.38
2023-03-02T07:20:14.134Z,29.70
2023-03-02T07:22:42.100Z,30.73
2023-03-02T07:25:10.557Z,30.90
2023-03-02T07:27:38.463Z,32.78
2023-03-02T07:30:06.943Z,31.30
2023-03-02T07:32:34.752Z,30.45
2023-03-02T07:35:02.738Z,30.33
2023-03-02T07:37:30.267Z,30.63
2023-03-02T07:40:00.280Z,31.98
2023-03-02T07:42:28.315Z,30.13
2023-03-02T07:44:58.831Z,31.57
2023-03-02T07:47:26.630Z,30.70
2023-03-02T07:49:54.240Z,30.33
2023-03-02T07:52:21.988Z,30.23
2023-03-02T07:54:49.810Z,30.85
2023-03-02T07:57:18.126Z,31.85
2023-03-02T07:59:46.120Z,33.28
2023-03-02T08:02:15.252Z,33.38
2023-03-02T08:04:43.521Z,31.55
2023-03-02T08:07:11.251Z,32.45
2023-03-02T08:09:40.000Z,32.42
2023-03-02T08:12:07.892Z,30.60
2023-03-02T08:14:35.558Z,32.53
2023-03-02T08:17:05.977Z,30.48
2023-03-02T08:19:34.022Z,33.40
2023-03-02T08:22:02.086Z,33.35
2023-03-02T08:24:29.770Z,32.75
2023-03-02T08:27:00.255Z,32.10
2023-03-02T08:29:28.033Z,32.23
2023-03-02T08:31:55.970Z,33.72
2023-03-02T08:34:23.701Z,30.83
2023-03-02T08:36:51.222Z,32.28
2023-03-02T08:39:18.934Z,33.20
2023-03-02T08:41:46.412Z,33.13
2023-03-02T08:44:14.072Z,33.88
2023-03-02T08:46:41.632Z,33.22
2023-03-02T08:49:09.272Z,32.10
2023-03-02T08:51:36.961Z,32.95
2023-03-02T08:54:04.653Z,33.25
2023-03-02T08:56:34.076Z,32.60
2023-03-02T08:59:03.068Z,33.47
2023-03-02T09:01:32.905Z,32.10
2023-03-02T09:04:01.168Z,32.05
2023-03-02T09:06:29.697Z,33.05
2023-03-02T09:08:57.629Z,31.30
2023-03-02T09:11:25.771Z,32.38
2023-03-02T09:13:55.587Z,32.22
2023-03-02T09:16:25.829Z,32.20
2023-03-02T09:18:54.563Z,32.63
2023-03-02T09:21:22.455Z,33.13
2023-03-02T09:23:53.863Z,32.92
2023-03-02T09:26:21.522Z,31.52
2023-03-02T09:28:49.323Z,31.48
2023-03-02T09:31:16.974Z,32.97
2023-03-02T09:33:45.041Z,31.58
2023-03-02T09:36:14.479Z,33.30
2023-03-02T09:38:42.183Z,34.63
2023-03-02T09:41:18.899Z,32.05
2023-03-02T09:44:01.811Z,30.40
2023-03-02T09:46:45.325Z,32.22
2023-03-02T09:49:12.899Z,30.50
2023-03-02T09:51:44.574Z,32.15
2023-03-02T09:54:12.512Z,33.42
2023-03-02T09:56:45.615Z,34.05
2023-03-02T09:59:13.259Z,34.75
2023-03-02T10:01:55.257Z,33.20
2023-03-02T10:04:27.983Z,32.92
2023-03-02T10:07:02.468Z,33.35
2023-03-02T10:09:30.174Z,34.60
2023-03-02T10:12:03.786Z,31.48
2023-03-02T10:14:38.353Z,34.17
2023-03-02T10:17:06.110Z,33.47
2023-03-02T10:19:48.646Z,34.58
2023-03-02T10:22:23.999Z,32.65
2023-03-02T10:25:11.956Z,33.55
2023-03-02T10:27:41.425Z,33.08
2023-03-02T10:30:16.634Z,33.83
2023-03-02T10:32:46.378Z,31.95
2023-03-02T10:35:20.925Z,33.08
2023-03-02T10:37:48.927Z,31.55
2023-03-02T10:40:34.675Z,31.52
2023-03-02T10:43:03.777Z,32.65
2023-03-02T10:45:32.946Z,32.95
2023-03-02T10:48:01.658Z,31.67
2023-03-02T10:50:30.582Z,31.38
2023-03-02T10:53:01.004Z,31.52
2023-03-02T10:55:33.586Z,31.92
2023-03-02T10:58:06.342Z,32.08
2023-03-02T11:00:34.893Z,31.42
2023-03-02T11:03:04.127Z,31.15
2023-03-02T11:05:40.479Z,32.47
2023-03-02T11:08:16.966Z,32.58
2023-03-02T11:10:55.770Z,31.90
2023-03-02T11:16:01.480Z,33.25
2023-03-02T11:18:35.236Z,33.25
2023-03-02T11:21:07.256Z,31.90
2023-03-02T11:23:47.220Z,33.58
2023-03-02T11:26:14.815Z,32.33
2023-03-02T11:28:46.613Z,34.75
2023-03-02T11:31:18.244Z,32.47
2023-03-02T11:34:11.600Z,31.20
2023-03-02T11:37:03.397Z,31.88
2023-03-02T11:39:55.822Z,32.30
2023-03-02T11:42:30.850Z,34.00
2023-03-02T11:45:01.700Z,31.15
2023-03-02T11:47:32.413Z,32.28
2023-03-02T11:50:05.280Z,31.30
2023-03-02T11:52:34.482Z,33.03
2023-03-02T11:55:22.904Z,29.88
2023-03-02T11:57:53.215Z,32.50
2023-03-02T12:00:20.981Z,30.83
2023-03-02T12:02:58.487Z,31.85
2023-03-02T12:05:28.168Z,32.90
2023-03-02T12:08:07.523Z,33.30
2023-03-02T12:10:40.531Z,32.88
2023-03-02T12:13:28.428Z,31.08
2023-03-02T12:15:56.468Z,30.85
2023-03-02T12:18:24.784Z,32.03
2023-03-02T12:21:18.776Z,31.52
2023-03-02T12:23:46.368Z,30.48
2023-03-02T12:26:20.312Z,30.42
2023-03-02T12:28:59.158Z,30.02
2023-03-02T12:31:27.520Z,31.27
2023-03-02T12:33:55.409Z,28.60
2023-03-02T12:36:28.093Z,29.10
2023-03-02T12:39:05.609Z,29.52
2023-03-02T12:41:39.287Z,31.42
2023-03-02T12:44:13.540Z,30.52
2023-03-02T12:46:45.572Z,29.35
2023-03-02T12:49:27.863Z,28.08
2023-03-02T12:52:00.986Z,29.92
2023-03-02T12:54:30.348Z,28.75
2023-03-02T12:57:04.296Z,28.42
2023-03-02T12:59:31.971Z,29.33
2023-03-02T13:02:06.899Z,28.42
2023-03-02T13:04:34.525Z,28.33
2023-03-02T13:07:02.320Z,28.45
2023-03-02T13:09:30.453Z,29.33
2023-03-02T13:11:58.498Z,28.38
2023-03-02T13:14:27.219Z,30.02
2023-03-02T13:17:05.095Z,28.60
2023-03-02T13:19:33.884Z,28.52
2023-03-02T13:22:02.642Z,27.58
2023-03-02T13:24:50.740Z,26.52
2023-03-02T13:27:19.841Z,27.17
2023-03-02T13:29:48.844Z,24.48
2023-03-02T13:32:27.016Z,25.48
2023-03-02T13:34:56.279Z,27.60
2023-03-02T13:37:40.294Z,26.85
2023-03-02T13:40:30.219Z,26.20
2023-03-02T13:42:57.972Z,25.65
2023-03-02T13:45:29.026Z,26.00
2023-03-02T13:50:24.291Z,25.40
2023-03-02T13:52:53.140Z,26.20
2023-03-02T13:55:21.932Z,26.20
2023-03-02T13:57:50.720Z,26.38
2023-03-02T14:00:23.256Z,25.45
2023-03-02T14:02:51.586Z,25.80
2023-03-02T14:05:24.599Z,26.00
2023-03-02T14:07:52.296Z,26.38
2023-03-02T14:10:21.110Z,25.48
2023-03-02T14:12:53.414Z,25.45
2023-03-02T14:15:21.217Z,24.92
2023-03-02T14:17:49.560Z,26.02
2023-03-02T14:20:19.367Z,28.00
2023-03-02T14:22:47.900Z,26.63
2023-03-02T14:25:15.575Z,25.48
2023-03-02T14:27:43.770Z,26.58
2023-03-02T14:30:18.880Z,28.27
2023-03-02T14:32:47.219Z,26.55
2023-03-02T14:35:16.669Z,24.80
2023-03-02T14:37:45.944Z,24.23
2023-03-02T14:40:29.262Z,26.98
2023-03-02T14:42:57.227Z,26.70
2023-03-02T14:45:25.001Z,27.65
2023-03-02T14:47:52.672Z,25.98
2023-03-02T14:50:21.405Z,26.13
2023-03-02T14:52:51.429Z,25.25
2023-03-02T14:55:33.598Z,25.40
2023-03-02T14:58:03.655Z,25.85
2023-03-02T15:00:31.637Z,26.38
2023-03-02T15:02:59.884Z,27.08
2023-03-02T15:05:29.943Z,27.10
2023-03-02T15:07:58.807Z,26.42
2023-03-02T15:10:26.797Z,25.48
2023-03-02T15:12:54.507Z,25.25
2023-03-02T15:15:22.947Z,27.23
2023-03-02T15:17:50.604Z,26.23
2023-03-02T15:20:18.299Z,25.25
2023-03-02T15:22:48.534Z,28.05
2023-03-02T15:25:17.407Z,27.52
2023-03-02T15:27:45.452Z,26.67
2023-03-02T15:30:13.242Z,28.40
2023-03-02T15:32:41.214Z,27.42
2023-03-02T15:35:09.973Z,26.73
2023-03-02T15:37:37.874Z,27.30
2023-03-02T15:40:06.263Z,29.27
2023-03-02T15:42:34.190Z,26.77
2023-03-02T15:45:01.892Z,25.83
2023-03-02T15:47:29.714Z,26.77
2023-03-02T15:49:57.325Z,26.13
2023-03-02T15:52:25.038Z,26.02
2023-03-02T15:54:52.596Z,26.13
2023-03-02T15:57:20.246Z,27.75
2023-03-02T15:59:47.871Z,27.08
2023-03-02T16:02:15.511Z,27.92
2023-03-02T16:04:43.248Z,27.67
2023-03-02T16:07:10.880Z,28.30
2023-03-02T16:09:38.562Z,27.92
2023-03-02T16:12:06.417Z,28.50
2023-03-02T16:14:34.520Z,27.23
2023-03-02T16:17:02.266Z,26.27
2023-03-02T16:19:29.940Z,29.08
2023-03-02T16:21:57.729Z,28.08
2023-03-02T16:24:25.493Z,27.30
2023-03-02T16:26:54.038Z,29.58
2023-03-02T16:29:22.594Z,27.70
2023-03-02T16:31:50.487Z,27.95
2023-03-02T16:34:18.325Z,27.33
2023-03-02T16:36:46.095Z,27.13
2023-03-02T16:39:14.339Z,28.83
2023-03-02T16:41:43.263Z,26.88
2023-03-02T16:44:11.608Z,27.38
2023-03-02T16:46:40.128Z,30.02
2023-03-02T16:49:07.756Z,30.20
2023-03-02T16:51:35.405Z,30.65
2023-03-02T16:54:05.071Z,29.50
2023-03-02T16:56:32.928Z,30.90
2023-03-02T16:59:00.536Z,30.42
2023-03-02T17:01:28.452Z,29.88
2023-03-02T17:03:57.043Z,29.25
2023-03-02T17:06:24.882Z,31.13
2023-03-02T17:08:52.788Z,31.95
2023-03-02T17:11:20.897Z,35.33
2023-03-02T17:13:48.629Z,33.58
2023-03-02T17:16:16.934Z,32.83
2023-03-02T17:18:46.993Z,33.55
2023-03-02T17:21:16.240Z,32.25
2023-03-02T17:23:43.969Z,33.30
2023-03-02T17:26:11.669Z,33.45
2023-03-02T17:28:39.417Z,33.55
2023-03-02T17:31:07.257Z,33.40
2023-03-02T17:33:35.366Z,31.75
2023-03-02T17:36:04.221Z,36.28
2023-03-02T17:38:31.906Z,36.05
2023-03-02T17:41:02.576Z,34.75
2023-03-02T17:43:34.460Z,32.10
2023-03-02T17:46:09.162Z,35.60
2023-03-02T17:48:36.788Z,34.60
2023-03-02T17:51:05.601Z,35.42
2023-03-02T17:53:33.258Z,35.53
2023-03-02T17:56:00.840Z,35.70
2023-03-02T17:58:42.806Z,34.95
2023-03-02T18:01:13.270Z,36.42
2023-03-02T18:03:40.901Z,35.38
2023-03-02T18:06:08.672Z,35.45
2023-03-02T18:08:37.034Z,36.25
2023-03-02T18:11:05.226Z,39.17
2023-03-02T18:13:33.000Z,38.85
2023-03-02T18:16:00.580Z,37.63
2023-03-02T18:18:28.253Z,37.05
2023-03-02T18:20:56.024Z,40.88
2023-03-02T18:23:23.751Z,39.60
2023-03-02T18:25:51.629Z,41.42
2023-03-02T18:28:20.069Z,40.45
2023-03-02T18:30:48.115Z,40.97
2023-03-02T18:33:15.768Z,39.78
2023-03-02T18:35:43.576Z,40.78
2023-03-02T18:38:11.206Z,39.03
2023-03-02T18:40:39.064Z,39.15
2023-03-02T18:43:06.754Z,38.75
2023-03-02T18:45:35.674Z,40.03
2023-03-02T18:48:03.507Z,40.03
2023-03-02T18:50:31.466Z,40.03
2023-03-02T18:52:59.133Z,41.00
2023-03-02T18:55:26.735Z,40.58
2023-03-02T18:57:54.953Z,46.35
2023-03-02T19:00:26.674Z,44.90
2023-03-02T19:02:55.667Z,45.63
2023-03-02T19:05:26.876Z,44.20
2023-03-02T19:07:55.229Z,43.97
2023-03-02T19:10:23.091Z,46.10
2023-03-02T19:12:50.855Z,43.47
2023-03-02T19:15:18.922Z,42.55
2023-03-02T19:17:46.950Z,43.10
2023-03-02T19:20:15.649Z,42.60
2023-03-02T19:22:43.283Z,39.17
2023-03-02T19:25:11.516Z,41.55
2023-03-02T19:27:39.094Z,42.28
2023-03-02T19:30:07.616Z,39.67
2023-03-02T19:32:35.342Z,42.92
2023-03-02T19:35:03.209Z,41.63
2023-03-02T19:37:30.737Z,41.35
2023-03-02T19:39:58.439Z,42.70
2023-03-02T19:42:26.056Z,40.92
2023-03-02T19:44:53.664Z,42.50
2023-03-02T19:47:21.334Z,39.28
2023-03-02T19:49:49.108Z,39.28
2023-03-02T19:52:19.339Z,40.33
2023-03-02T19:54:46.949Z,29.25
2023-03-02T19:57:14.634Z,41.92
2023-03-02T19:59:42.466Z,39.40
2023-03-02T20:02:10.149Z,42.72
2023-03-02T20:04:37.897Z,41.70
2023-03-02T20:07:05.672Z,41.35
2023-03-02T20:09:33.488Z,41.47
2023-03-02T20:12:05.960Z,41.30
2023-03-02T20:14:36.019Z,42.15
2023-03-02T20:17:10.375Z,39.83
2023-03-02T20:19:38.173Z,41.97
2023-03-02T20:22:06.918Z,44.25
2023-03-02T20:24:34.723Z,40.67
2023-03-02T20:27:03.422Z,42.10
2023-03-02T20:29:30.970Z,42.13
2023-03-02T20:31:58.730Z,41.38
2023-03-02T20:34:26.439Z,43.55
2023-03-02T20:36:54.033Z,42.85
2023-03-02T20:39:24.595Z,43.42
2023-03-02T20:41:52.275Z,42.20
2023-03-02T20:44:20.979Z,42.92
2023-03-02T20:46:51.529Z,42.40
2023-03-02T20:49:19.882Z,31.60
2023-03-02T20:51:52.711Z,43.05
2023-03-02T20:54:22.471Z,40.42
2023-03-02T20:56:50.361Z,41.35
2023-03-02T20:59:18.235Z,42.70
2023-03-02T21:01:46.110Z,41.47
2023-03-02T21:04:14.927Z,39.90
2023-03-02T21:06:43.210Z,38.83
2023-03-02T21:09:11.395Z,40.45
2023-03-02T21:11:39.172Z,40.05
2023-03-02T21:14:06.999Z,43.03
2023-03-02T21:16:37.364Z,43.50
2023-03-02T21:19:06.567Z,42.63
2023-03-02T21:21:41.484Z,43.10
2023-03-02T21:24:13.693Z,42.65
2023-03-02T21:26:41.965Z,43.47
2023-03-02T21:29:11.803Z,41.45
2023-03-02T21:31:40.828Z,43.22
2023-03-02T21:34:08.863Z,41.90
2023-03-02T21:36:36.946Z,43.03
2023-03-02T21:39:05.365Z,42.53
2023-03-02T21:41:35.762Z,42.92
2023-03-02T21:44:06.072Z,44.30
2023-03-02T21:46:35.807Z,42.63
2023-03-02T21:49:03.922Z,41.03
2023-03-02T21:51:31.987Z,42.35
2023-03-02T21:53:59.846Z,41.45
2023-03-02T21:56:27.900Z,41.38
2023-03-02T21:58:57.114Z,40.97
2023-03-02T22:01:25.956Z,41.45
2023-03-02T22:03:54.587Z,42.65
2023-03-02T22:06:27.836Z,41.70
2023-03-02T22:08:56.942Z,39.65
2023-03-02T22:11:28.622Z,40.83
2023-03-02T22:14:01.346Z,41.33
2023-03-02T22:16:38.685Z,40.97
2023-03-02T22:19:19.058Z,42.55
2023-03-02T22:21:49.040Z,40.30
2023-03-02T22:24:27.536Z,41.05
2023-03-02T22:26:58.923Z,42.17
2023-03-02T22:29:30.902Z,42.53
2023-03-02T22:32:01.731Z,43.15
2023-03-02T22:34:30.369Z,40.30
2023-03-02T22:37:07.674Z,42.17
2023-03-02T22:39:35.482Z,43.20
2023-03-02T22:42:11.124Z,42.50
2023-03-02T22:44:39.233Z,43.13
2023-03-02T22:47:13.180Z,42.47
2023-03-02T22:49:40.900Z,41.40
2023-03-02T22:52:22.729Z,41.78
2023-03-02T22:54:50.449Z,43.80
2023-03-02T22:57:27.461Z,44.42
2023-03-02T23:00:00.647Z,44.08
2023-03-02T23:02:29.771Z,42.83
2023-03-02T23:04:57.736Z,41.47
2023-03-02T23:07:25.423Z,42.38
2023-03-02T23:09:53.100Z,45.45
2023-03-02T23:12:26.605Z,46.08
2023-03-02T23:14:55.948Z,43.20
2023-03-02T23:17:23.660Z,44.67
2023-03-02T23:19:51.885Z,43.85
2023-03-02T23:22:20.293Z,44.33
2023-03-02T23:24:48.638Z,45.70
2023-03-02T23:27:16.804Z,45.92
2023-03-02T23:29:44.595Z,46.13
2023-03-02T23:32:12.665Z,45.72
2023-03-02T23:34:40.260Z,45.67
2023-03-02T23:37:08.040Z,47.25
2023-03-02T23:39:35.726Z,42.08
2023-03-02T23:42:03.448Z,43.35
2023-03-02T23:44:31.080Z,46.33
2023-03-02T23:46:58.772Z,45.70
2023-03-02T23:49:26.907Z,44.70
2023-03-02T23:51:54.939Z,43.58
2023-03-02T23:54:26.371Z,42.75
2023-03-02T23:56:53.967Z,44.88
2023-03-02T23:59:21.946Z,45.03
